Time;durP1;ratioP1;P1;durP2;ratioP2;P2;SDS_P1;SDS_P2;PMS_P1;PMS_P2;Temp;Humidity;BMP_temperature;BMP_pressure;BME280_temperature;BME280_humidity;BME280_pressure;Samples;Min_cycle;Max_cycle;Signal;HPM_P1;HPM_P2
2023/03/31 00:01:29;;;;;;;21.67;6.88;;;10.70;99.90;;;;;;5155044;27;20038;-69
2023/03/31 00:04:00;;;;;;;18.05;6.50;;;10.70;99.90;;;;;;5135549;27;20513;-70
2023/03/31 00:06:27;;;;;;;24.45;7.53;;;10.70;99.90;;;;;;5154783;27;20050;-70
2023/03/31 00:08:53;;;;;;;15.80;6.07;;;10.70;99.90;;;;;;5154485;27;20046;-69
2023/03/31 00:11:20;;;;;;;18.23;8.85;;;10.70;99.90;;;;;;5154256;27;20125;-69
2023/03/31 00:13:46;;;;;;;18.63;7.32;;;10.70;99.90;;;;;;5154135;27;20058;-70
2023/03/31 00:16:12;;;;;;;17.95;6.15;;;10.70;99.90;;;;;;5154311;27;20050;-69
2023/03/31 00:18:46;;;;;;;19.42;6.88;;;10.70;99.90;;;;;;5154204;27;20432;-69
2023/03/31 00:21:23;;;;;;;20.92;6.72;;;10.70;99.90;;;;;;5154245;27;20042;-69
2023/03/31 00:24:03;;;;;;;17.70;6.72;;;10.80;99.90;;;;;;5153908;27;20111;-69
2023/03/31 00:26:29;;;;;;;21.63;7.20;;;10.80;99.90;;;;;;5154105;27;20046;-69
2023/03/31 00:28:56;;;;;;;21.50;8.50;;;10.80;99.90;;;;;;5154397;27;20070;-69
2023/03/31 00:31:22;;;;;;;21.08;7.00;;;10.80;99.90;;;;;;5136080;27;20050;-69
2023/03/31 00:33:49;;;;;;;16.52;6.78;;;10.80;99.90;;;;;;5154005;27;20039;-70
2023/03/31 00:36:20;;;;;;;16.92;5.63;;;10.80;99.90;;;;;;5135616;27;20498;-69
2023/03/31 00:38:50;;;;;;;17.73;6.65;;;10.80;99.90;;;;;;5154207;27;20047;-69
2023/03/31 00:41:16;;;;;;;19.35;6.70;;;10.80;99.90;;;;;;5135885;27;20091;-70
2023/03/31 00:44:05;;;;;;;20.95;6.85;;;10.80;99.90;;;;;;5135773;27;20107;-69
2023/03/31 00:46:35;;;;;;;19.70;6.57;;;10.80;99.90;;;;;;5153869;27;20047;-70
2023/03/31 00:49:01;;;;;;;17.95;6.78;;;10.70;99.90;;;;;;5154038;27;20327;-70
2023/03/31 00:51:30;;;;;;;19.00;6.35;;;10.70;99.90;;;;;;5154310;27;20089;-69
2023/03/31 00:54:03;;;;;;;24.60;6.95;;;10.70;99.90;;;;;;5153533;27;20053;-69
2023/03/31 00:56:33;;;;;;;15.55;5.38;;;10.70;99.90;;;;;;5135227;27;20050;-69
2023/03/31 00:59:03;;;;;;;10.93;5.78;;;10.70;99.90;;;;;;5153728;27;20038;-69
2023/03/31 01:01:30;;;;;;;19.60;7.00;;;10.70;99.90;;;;;;5135616;27;20046;-70
2023/03/31 01:03:56;;;;;;;19.20;6.18;;;10.60;99.90;;;;;;5153861;27;20046;-69
2023/03/31 01:06:24;;;;;;;12.02;5.68;;;10.60;99.90;;;;;;5154212;27;20047;-69
2023/03/31 01:08:51;;;;;;;13.13;5.90;;;10.50;99.90;;;;;;5154023;27;20525;-71
2023/03/31 01:11:20;;;;;;;23.90;6.43;;;10.50;99.90;;;;;;5153648;27;20086;-71
2023/03/31 01:13:49;;;;;;;15.02;5.43;;;10.40;99.90;;;;;;5153577;27;20051;-71
2023/03/31 01:16:16;;;;;;;17.75;6.45;;;10.40;99.90;;;;;;5154476;27;20451;-71
2023/03/31 01:18:48;;;;;;;22.15;6.20;;;10.30;99.90;;;;;;5157747;27;20058;-71
2023/03/31 01:21:36;;;;;;;12.90;5.97;;;10.30;99.90;;;;;;5158126;27;20066;-71
2023/03/31 01:24:14;;;;;;;15.52;5.63;;;10.30;99.90;;;;;;5157871;27;20063;-72
2023/03/31 01:26:49;;;;;;;15.57;6.30;;;10.20;99.90;;;;;;5157910;27;20050;-71
2023/03/31 01:29:17;;;;;;;20.95;7.13;;;10.20;99.90;;;;;;5157116;27;20352;-71
2023/03/31 01:32:02;;;;;;;15.45;6.05;;;10.20;99.90;;;;;;5157444;27;20049;-71
2023/03/31 01:34:45;;;;;;;14.90;5.57;;;10.20;99.90;;;;;;5139003;27;20410;-69
2023/03/31 01:38:05;;;;;;;14.77;5.22;;;10.20;99.90;;;;;;5157720;27;20134;-69
2023/03/31 01:40:30;;;;;;;14.60;6.18;;;10.10;99.90;;;;;;5157203;27;20039;-69
2023/03/31 01:43:11;;;;;;;16.17;6.00;;;10.10;99.90;;;;;;5156895;27;20455;-69
2023/03/31 01:46:02;;;;;;;17.58;6.63;;;10.10;99.90;;;;;;5157307;27;20054;-69
2023/03/31 01:48:43;;;;;;;14.93;6.63;;;10.10;99.90;;;;;;5157159;27;20045;-69
2023/03/31 01:51:32;;;;;;;19.80;5.47;;;10.00;99.90;;;;;;5157060;27;20118;-69
2023/03/31 01:54:19;;;;;;;14.55;5.70;;;10.00;99.90;;;;;;5156979;27;20073;-69
2023/03/31 01:56:55;;;;;;;14.68;5.60;;;10.00;99.90;;;;;;5157256;27;20043;-69
2023/03/31 01:59:39;;;;;;;14.20;6.22;;;10.00;99.90;;;;;;5157063;27;20056;-69
2023/03/31 02:02:24;;;;;;;22.23;5.97;;;10.00;99.90;;;;;;5156823;27;20039;-70
2023/03/31 02:04:56;;;;;;;15.93;5.25;;;10.00;99.90;;;;;;5156713;27;20139;-69
2023/03/31 02:07:27;;;;;;;14.15;5.13;;;9.90;99.90;;;;;;5156820;27;20042;-69
2023/03/31 02:09:59;;;;;;;16.20;6.40;;;9.90;99.90;;;;;;5138040;27;20039;-69
2023/03/31 02:12:29;;;;;;;21.83;5.63;;;9.90;99.90;;;;;;5157115;27;20455;-70
2023/03/31 02:14:57;;;;;;;20.73;7.60;;;9.90;99.90;;;;;;5157016;27;20039;-70
2023/03/31 02:17:29;;;;;;;12.02;5.15;;;10.00;99.90;;;;;;5156413;27;20114;-70
2023/03/31 02:19:58;;;;;;;12.38;5.03;;;10.00;99.90;;;;;;5137965;27;20092;-70
2023/03/31 02:22:29;;;;;;;12.30;5.68;;;10.00;99.90;;;;;;5138495;27;20082;-71
2023/03/31 02:24:56;;;;;;;10.23;4.60;;;10.00;99.90;;;;;;5156650;27;20050;-70
2023/03/31 02:27:25;;;;;;;13.45;5.88;;;10.00;99.90;;;;;;5155820;27;20051;-70
2023/03/31 02:29:52;;;;;;;13.68;5.22;;;10.00;99.90;;;;;;5137697;27;20053;-70
2023/03/31 02:32:31;;;;;;;15.18;4.90;;;10.00;99.90;;;;;;5156022;27;20061;-70
2023/03/31 02:34:57;;;;;;;14.13;6.05;;;10.00;99.90;;;;;;5156505;27;20092;-71
2023/03/31 02:37:23;;;;;;;15.23;5.78;;;9.90;99.90;;;;;;5137670;27;20371;-70
2023/03/31 02:39:52;;;;;;;15.18;5.03;;;9.90;99.90;;;;;;5156058;27;20082;-70
2023/03/31 02:42:19;;;;;;;20.00;6.78;;;10.00;99.90;;;;;;5155952;27;20043;-70
2023/03/31 02:44:45;;;;;;;15.90;5.50;;;10.00;99.90;;;;;;5155917;27;20062;-70
2023/03/31 02:47:13;;;;;;;17.85;5.32;;;10.00;99.90;;;;;;5155906;27;20042;-70
2023/03/31 02:49:56;;;;;;;13.43;5.63;;;10.00;99.90;;;;;;5156131;27;20042;-71
2023/03/31 02:52:39;;;;;;;14.43;6.00;;;10.10;99.90;;;;;;5156100;27;20043;-70
2023/03/31 02:55:11;;;;;;;;;;;10.10;99.90;;;;;;5156749;27;20038;-70
2023/03/31 02:57:55;;;;;;;12.25;5.22;;;10.10;99.90;;;;;;5156161;27;19930;-70
2023/03/31 03:00:43;;;;;;;12.98;5.40;;;10.20;99.90;;;;;;5137479;27;20073;-71
2023/03/31 03:03:30;;;;;;;11.20;5.25;;;10.10;99.90;;;;;;5156079;27;20384;-70
2023/03/31 03:06:08;;;;;;;18.27;5.72;;;10.10;99.90;;;;;;5155532;27;20111;-70
2023/03/31 03:08:45;;;;;;;12.77;4.47;;;10.10;99.90;;;;;;5155417;27;20099;-70
2023/03/31 03:11:39;;;;;;;13.35;4.90;;;10.20;99.90;;;;;;5137633;27;20046;-70
2023/03/31 03:14:19;;;;;;;13.40;5.32;;;10.20;99.90;;;;;;5136969;27;20039;-70
2023/03/31 03:16:52;;;;;;;14.85;4.90;;;10.20;99.90;;;;;;5155648;27;20047;-70
2023/03/31 03:19:21;;;;;;;17.42;5.13;;;10.20;99.90;;;;;;5155821;27;20043;-70
2023/03/31 03:21:47;;;;;;;12.75;5.13;;;10.20;99.90;;;;;;5155143;27;20054;-71
2023/03/31 03:24:16;;;;;;;13.50;5.07;;;10.10;99.90;;;;;;5156139;27;20594;-70
2023/03/31 03:26:43;;;;;;;17.98;5.10;;;10.10;99.90;;;;;;5156257;27;20075;-70
2023/03/31 03:29:13;;;;;;;14.98;5.22;;;10.10;99.90;;;;;;5156055;27;20035;-70
2023/03/31 03:31:40;;;;;;;14.13;4.90;;;10.10;99.90;;;;;;5137453;27;20047;-70
2023/03/31 03:34:08;;;;;;;10.35;4.47;;;10.10;99.90;;;;;;5155770;27;20095;-70
2023/03/31 03:36:35;;;;;;;12.43;5.30;;;10.20;99.90;;;;;;5154846;27;20043;-70
2023/03/31 03:39:01;;;;;;;10.15;4.55;;;10.20;99.90;;;;;;5154207;27;20057;-71
2023/03/31 03:41:26;;;;;;;15.77;5.93;;;10.20;99.90;;;;;;5154820;27;20118;-70
2023/03/31 03:43:52;;;;;;;8.55;4.30;;;10.20;99.90;;;;;;5155180;27;20098;-71
2023/03/31 03:46:18;;;;;;;10.68;5.05;;;10.20;99.90;;;;;;5154811;27;20051;-70
2023/03/31 03:48:43;;;;;;;16.15;6.30;;;10.20;99.90;;;;;;5154625;27;20045;-70
2023/03/31 03:51:09;;;;;;;9.38;4.40;;;10.20;99.90;;;;;;5154316;27;20110;-70
2023/03/31 03:53:35;;;;;;;9.82;4.13;;;10.20;99.90;;;;;;5154998;27;20045;-70
2023/03/31 03:56:01;;;;;;;13.13;5.03;;;10.20;99.90;;;;;;5136851;27;20034;-70
2023/03/31 03:58:27;;;;;;;11.52;4.93;;;10.30;99.90;;;;;;5154769;27;20512;-70
2023/03/31 04:00:52;;;;;;;14.75;5.90;;;10.30;99.90;;;;;;5154581;27;20038;-71
2023/03/31 04:03:18;;;;;;;11.20;4.90;;;10.30;99.90;;;;;;5118818;27;20047;-72
2023/03/31 04:05:48;;;;;;;8.23;5.07;;;10.30;99.90;;;;;;5136454;27;20046;-71
2023/03/31 04:08:14;;;;;;;9.07;5.13;;;10.30;99.90;;;;;;5136741;27;20107;-71
2023/03/31 04:10:44;;;;;;;8.32;4.85;;;10.30;99.90;;;;;;5154704;27;20475;-71
2023/03/31 04:13:10;;;;;;;10.50;5.30;;;10.30;99.90;;;;;;5154425;27;20046;-71
2023/03/31 04:15:35;;;;;;;8.77;4.43;;;10.30;99.90;;;;;;5154570;27;20156;-71
2023/03/31 04:18:01;;;;;;;11.70;5.82;;;10.30;99.90;;;;;;5136088;27;20047;-71
2023/03/31 04:20:29;;;;;;;10.95;5.50;;;10.30;99.90;;;;;;5154036;27;20054;-71
2023/03/31 04:22:55;;;;;;;9.98;5.53;;;10.30;99.90;;;;;;5154102;27;20043;-71
2023/03/31 04:25:21;;;;;;;11.85;5.78;;;10.30;99.90;;;;;;5135308;27;20110;-70
2023/03/31 04:27:53;;;;;;;8.32;5.53;;;10.30;99.90;;;;;;5154133;27;20058;-71
2023/03/31 04:30:29;;;;;;;6.67;5.20;;;10.30;99.90;;;;;;5154095;27;20043;-70
2023/03/31 04:32:59;;;;;;;7.07;5.10;;;10.30;99.90;;;;;;5136217;27;20049;-71
2023/03/31 04:35:48;;;;;;;11.43;5.68;;;10.30;99.90;;;;;;5154228;27;20561;-71
2023/03/31 04:38:18;;;;;;;9.60;6.15;;;10.30;99.90;;;;;;5153996;27;20092;-70
2023/03/31 04:40:49;;;;;;;9.68;5.75;;;10.30;99.90;;;;;;5153990;27;20042;-71
2023/03/31 04:43:16;;;;;;;8.10;5.85;;;10.30;99.90;;;;;;5153926;27;20046;-71
2023/03/31 04:45:42;;;;;;;12.40;5.15;;;10.20;99.90;;;;;;5153864;27;20125;-71
2023/03/31 04:48:08;;;;;;;9.05;5.25;;;10.20;99.90;;;;;;5154345;27;20093;-70
2023/03/31 04:50:34;;;;;;;9.00;5.45;;;10.20;99.90;;;;;;5136806;27;20175;-70
2023/03/31 04:53:01;;;;;;;11.30;5.78;;;10.20;99.90;;;;;;5140366;27;20087;-70
2023/03/31 04:55:27;;;;;;;9.82;5.38;;;10.20;99.90;;;;;;5158509;27;20479;-70
2023/03/31 04:57:53;;;;;;;9.18;6.28;;;10.10;99.90;;;;;;5139363;27;20042;-70
2023/03/31 05:00:19;;;;;;;10.02;5.85;;;10.20;99.90;;;;;;5158204;27;20130;-70
2023/03/31 05:02:45;;;;;;;10.02;6.35;;;10.20;99.90;;;;;;5157564;27;20508;-70
2023/03/31 05:05:11;;;;;;;16.98;6.65;;;10.20;99.90;;;;;;5158175;27;20131;-69
2023/03/31 05:07:37;;;;;;;9.68;5.80;;;10.10;99.90;;;;;;5157686;27;20050;-69
2023/03/31 05:10:04;;;;;;;11.18;5.78;;;10.10;99.90;;;;;;5122968;27;20086;-70
2023/03/31 05:12:36;;;;;;;11.57;5.85;;;10.10;99.90;;;;;;5157729;27;20069;-70
2023/03/31 05:15:03;;;;;;;8.57;5.72;;;10.10;99.90;;;;;;5157646;27;20481;-70
2023/03/31 05:17:32;;;;;;;12.43;5.72;;;10.20;99.90;;;;;;5158292;27;20042;-70
2023/03/31 05:19:58;;;;;;;15.00;6.47;;;10.20;99.90;;;;;;5157518;27;20034;-71
2023/03/31 05:22:24;;;;;;;9.98;5.53;;;10.20;99.90;;;;;;5157557;27;20050;-70
2023/03/31 05:24:50;;;;;;;9.27;5.20;;;10.20;99.90;;;;;;5157663;27;20137;-70
2023/03/31 05:27:16;;;;;;;13.93;6.13;;;10.80;99.90;;;;;;5157128;27;20149;-70
2023/03/31 05:29:42;;;;;;;11.40;5.70;;;10.20;99.90;;;;;;5157366;27;20035;-71
2023/03/31 05:32:08;;;;;;;12.35;6.53;;;10.20;99.90;;;;;;5157046;27;20038;-70
2023/03/31 05:34:35;;;;;;;13.02;5.45;;;10.20;99.90;;;;;;5157551;27;20134;-71
2023/03/31 05:37:01;;;;;;;14.38;5.68;;;10.30;99.90;;;;;;5157501;27;20122;-70
2023/03/31 05:39:31;;;;;;;7.43;4.90;;;10.20;99.90;;;;;;5156676;27;20475;-70
2023/03/31 05:42:00;;;;;;;8.65;4.63;;;10.30;99.90;;;;;;5156875;27;20057;-69
2023/03/31 05:44:26;;;;;;;6.22;4.22;;;10.20;99.90;;;;;;5157083;27;20058;-70
2023/03/31 05:46:53;;;;;;;12.65;4.95;;;10.20;99.90;;;;;;5138698;27;20117;-72
2023/03/31 05:49:19;;;;;;;9.80;4.88;;;10.20;99.90;;;;;;5157376;27;20077;-70
2023/03/31 05:51:45;;;;;;;9.02;5.03;;;10.30;99.90;;;;;;5138222;27;20463;-70
2023/03/31 05:54:11;;;;;;;9.43;4.55;;;10.20;99.90;;;;;;5138284;27;20381;-71
2023/03/31 05:56:37;;;;;;;11.40;5.65;;;10.20;99.90;;;;;;5138095;27;20110;-71
2023/03/31 05:59:02;;;;;;;6.82;5.00;;;10.20;99.90;;;;;;5156732;27;20163;-70
2023/03/31 06:01:28;;;;;;;12.38;4.95;;;10.20;99.90;;;;;;5156318;27;20043;-71
2023/03/31 06:03:55;;;;;;;9.77;4.82;;;10.20;99.90;;;;;;5156411;27;20070;-69
2023/03/31 06:06:21;;;;;;;14.32;5.72;;;10.20;99.90;;;;;;5156504;27;20046;-70
2023/03/31 06:08:47;;;;;;;9.63;5.45;;;10.20;99.90;;;;;;5138342;27;20227;-70
2023/03/31 06:11:18;;;;;;;12.05;5.65;;;10.20;99.90;;;;;;5138094;27;20051;-71
2023/03/31 06:13:44;;;;;;;11.32;4.97;;;10.20;99.90;;;;;;5156433;27;20071;-71
2023/03/31 06:16:12;;;;;;;5.95;3.95;;;10.20;99.90;;;;;;5156420;27;20054;-70
2023/03/31 06:18:38;;;;;;;6.53;4.68;;;10.20;99.90;;;;;;5156002;27;20421;-71
2023/03/31 06:21:04;;;;;;;8.27;4.45;;;10.20;99.90;;;;;;5137997;27;20053;-70
2023/03/31 06:23:30;;;;;;;9.93;5.30;;;10.20;99.90;;;;;;5156039;27;20050;-71
2023/03/31 06:26:05;;;;;;;7.95;4.70;;;10.20;99.90;;;;;;5138142;27;20053;-69
2023/03/31 06:28:30;;;;;;;6.97;4.50;;;10.20;99.90;;;;;;5155920;27;20511;-70
2023/03/31 06:31:05;;;;;;;6.55;4.25;;;10.20;99.90;;;;;;5156049;27;20089;-70
2023/03/31 06:33:31;;;;;;;7.53;4.15;;;10.20;99.90;;;;;;5156017;27;20042;-71
2023/03/31 06:35:58;;;;;;;9.68;4.63;;;10.20;99.90;;;;;;5156601;27;20082;-70
2023/03/31 06:38:24;;;;;;;10.57;4.32;;;10.20;99.90;;;;;;5158468;27;20038;-71
2023/03/31 06:40:50;;;;;;;7.95;4.47;;;10.20;99.90;;;;;;5157029;27;20042;-71
2023/03/31 06:43:16;;;;;;;7.70;4.75;;;10.20;99.90;;;;;;5137871;27;20042;-70
2023/03/31 06:45:41;;;;;;;8.95;4.78;;;10.20;99.90;;;;;;5156283;27;20047;-70
2023/03/31 06:48:07;;;;;;;8.80;4.78;;;10.20;99.90;;;;;;5155995;27;20516;-71
2023/03/31 06:50:33;;;;;;;6.78;4.68;;;10.20;99.90;;;;;;5155922;27;20049;-70
2023/03/31 06:52:59;;;;;;;8.45;4.72;;;10.20;99.90;;;;;;5137365;27;20483;-70
2023/03/31 06:55:24;;;;;;;10.07;5.15;;;10.20;99.90;;;;;;5155236;27;20106;-70
2023/03/31 06:57:50;;;;;;;9.38;5.55;;;10.20;99.90;;;;;;5137423;27;20095;-70
2023/03/31 07:00:16;;;;;;;9.50;4.97;;;10.10;99.90;;;;;;5155819;27;20103;-70
2023/03/31 07:02:42;;;;;;;11.00;5.20;;;10.10;99.90;;;;;;5137558;27;20035;-70
2023/03/31 07:05:08;;;;;;;7.45;4.90;;;10.10;99.90;;;;;;5155761;27;20125;-71
2023/03/31 07:07:34;;;;;;;10.55;5.07;;;10.10;99.90;;;;;;5155392;27;20043;-70
2023/03/31 07:09:59;;;;;;;5.88;4.60;;;10.10;99.90;;;;;;5155431;27;20035;-70
2023/03/31 07:12:25;;;;;;;5.30;4.43;;;10.20;99.90;;;;;;5155575;27;20113;-69
2023/03/31 07:14:51;;;;;;;8.80;4.85;;;10.20;99.90;;;;;;5154629;27;20054;-69
2023/03/31 07:17:16;;;;;;;8.35;4.47;;;10.20;99.90;;;;;;5155833;27;20498;-69
2023/03/31 07:19:46;;;;;;;6.95;4.53;;;10.20;99.90;;;;;;5155295;27;20393;-70
2023/03/31 07:22:13;;;;;;;6.07;4.35;;;10.20;99.90;;;;;;5137500;27;20046;-69
2023/03/31 07:24:39;;;;;;;13.45;5.93;;;10.20;99.90;;;;;;5155192;27;20385;-70
2023/03/31 07:27:05;;;;;;;7.30;5.25;;;10.20;99.90;;;;;;5155124;27;20138;-69
2023/03/31 07:29:31;;;;;;;8.50;4.82;;;10.20;99.90;;;;;;5136666;27;20082;-70
2023/03/31 07:31:56;;;;;;;7.90;4.70;;;10.20;99.90;;;;;;5136543;27;20115;-69
2023/03/31 07:34:30;;;;;;;8.45;4.95;;;10.20;99.90;;;;;;5095811;27;20423;-71
2023/03/31 07:36:55;;;;;;;9.30;5.10;;;10.20;99.90;;;;;;5065912;28;20164;-72
2023/03/31 07:39:21;;;;;;;7.30;4.40;;;10.20;99.90;;;;;;5060700;28;20525;-71
2023/03/31 07:41:47;;;;;;;9.23;4.93;;;10.20;99.90;;;;;;5065404;28;20052;-71
2023/03/31 07:44:13;;;;;;;9.70;4.85;;;10.20;99.90;;;;;;5063482;28;20797;-71
2023/03/31 07:46:38;;;;;;;9.43;4.50;;;10.20;99.90;;;;;;5054017;28;20048;-71
2023/03/31 07:49:06;;;;;;;11.80;4.55;;;10.20;99.90;;;;;;5060767;28;20791;-71
2023/03/31 07:51:32;;;;;;;7.53;4.10;;;10.20;99.90;;;;;;5064186;28;20132;-70
2023/03/31 07:53:57;;;;;;;7.40;3.80;;;10.20;99.90;;;;;;5060761;28;20045;-71
2023/03/31 07:56:24;;;;;;;4.55;3.15;;;10.10;99.90;;;;;;5067755;28;20072;-70
2023/03/31 07:58:51;;;;;;;4.65;2.80;;;10.10;99.90;;;;;;5061052;28;20102;-71
2023/03/31 08:01:18;;;;;;;5.13;3.22;;;10.10;99.90;;;;;;5066358;28;20231;-75
2023/03/31 08:03:46;;;;;;;8.88;3.55;;;10.10;99.90;;;;;;5076720;28;20079;-71
2023/03/31 08:06:18;;;;;;;4.75;3.03;;;10.10;99.90;;;;;;5064365;28;20048;-72
2023/03/31 08:08:44;;;;;;;5.72;4.13;;;10.10;99.90;;;;;;5067524;28;20196;-71
2023/03/31 08:11:09;;;;;;;8.70;4.45;;;10.20;99.90;;;;;;5068100;28;20049;-72
2023/03/31 08:13:36;;;;;;;7.55;4.43;;;10.20;99.90;;;;;;5053334;28;20103;-72
2023/03/31 08:16:02;;;;;;;5.75;3.95;;;10.20;99.90;;;;;;5058708;28;20141;-72
2023/03/31 08:18:29;;;;;;;7.15;4.07;;;10.20;99.90;;;;;;5056971;28;20048;-72
2023/03/31 08:20:54;;;;;;;12.95;4.60;;;10.20;99.90;;;;;;5076626;28;20040;-72
2023/03/31 08:23:20;;;;;;;6.50;4.25;;;10.20;99.90;;;;;;5061419;28;20497;-72
2023/03/31 08:25:46;;;;;;;5.38;4.07;;;10.30;99.90;;;;;;5066766;28;20052;-72
2023/03/31 08:28:13;;;;;;;5.78;4.15;;;10.30;99.90;;;;;;5076622;28;20155;-72
2023/03/31 08:30:42;;;;;;;5.65;4.10;;;10.40;99.90;;;;;;5061099;28;20056;-71
2023/03/31 08:33:07;;;;;;;9.70;4.30;;;10.40;99.90;;;;;;5065817;28;20048;-72
2023/03/31 08:35:36;;;;;;;8.88;3.90;;;10.50;99.90;;;;;;5056271;28;20052;-72
2023/03/31 08:38:02;;;;;;;8.88;4.38;;;10.50;99.90;;;;;;5068709;28;20090;-72
2023/03/31 08:40:30;;;;;;;7.70;4.03;;;10.60;99.90;;;;;;5057700;28;20076;-72
2023/03/31 08:43:00;;;;;;;8.85;4.15;;;10.60;99.90;;;;;;5061832;28;20040;-72
2023/03/31 08:45:31;;;;;;;11.50;5.22;;;10.60;99.90;;;;;;5052358;28;20053;-72
2023/03/31 08:48:13;;;;;;;11.45;4.43;;;10.70;99.90;;;;;;5062496;28;20048;-72
2023/03/31 08:50:49;;;;;;;7.80;4.00;;;10.80;99.90;;;;;;5043424;28;20048;-72
2023/03/31 08:53:34;;;;;;;6.63;4.25;;;10.70;99.90;;;;;;5047313;28;20049;-72
2023/03/31 08:56:03;;;;;;;7.10;3.92;;;10.80;99.90;;;;;;5061782;28;20935;-71
2023/03/31 08:58:39;;;;;;;5.22;3.97;;;10.80;99.90;;;;;;5047929;28;20052;-71
2023/03/31 09:01:30;;;;;;;8.60;5.00;;;10.80;99.90;;;;;;5043275;28;20044;-71
2023/03/31 09:04:22;;;;;;;7.00;4.53;;;10.90;99.90;;;;;;5043539;28;20053;-72
2023/03/31 09:07:26;;;;;;;9.63;4.43;;;10.90;99.90;;;;;;5059180;28;20087;-72
2023/03/31 09:10:06;;;;;;;10.20;3.95;;;10.80;99.90;;;;;;5048926;28;20064;-71
2023/03/31 09:13:01;;;;;;;7.80;4.25;;;10.80;99.90;;;;;;5054567;28;20083;-71
2023/03/31 09:15:38;;;;;;;11.45;3.58;;;10.90;99.90;;;;;;5040514;28;20056;-72
2023/03/31 09:18:25;;;;;;;9.85;4.93;;;10.90;99.90;;;;;;5043395;28;20048;-72
2023/03/31 09:20:54;;;;;;;9.00;4.20;;;10.80;99.90;;;;;;5065977;28;20062;-72
2023/03/31 09:23:32;;;;;;;6.07;4.28;;;10.90;99.90;;;;;;5054156;28;20151;-72
2023/03/31 09:26:00;;;;;;;6.75;4.30;;;10.90;99.90;;;;;;5049602;28;20049;-72
2023/03/31 09:28:35;;;;;;;7.43;4.00;;;10.90;99.90;;;;;;5049300;28;20053;-72
2023/03/31 09:31:13;;;;;;;6.35;3.80;;;11.00;99.90;;;;;;5052554;28;20655;-72
2023/03/31 09:33:43;;;;;;;5.43;3.83;;;11.00;99.90;;;;;;5059907;28;20059;-71
2023/03/31 09:36:15;;;;;;;9.85;4.22;;;11.00;99.90;;;;;;5060997;28;20048;-71
2023/03/31 09:38:42;;;;;;;8.13;4.25;;;11.10;99.90;;;;;;5041593;28;20061;-72
2023/03/31 09:41:10;;;;;;;8.57;3.83;;;11.10;99.90;;;;;;5041789;28;20052;-72
2023/03/31 09:43:40;;;;;;;8.57;4.15;;;11.20;99.90;;;;;;5049613;28;20182;-72
2023/03/31 09:46:34;;;;;;;5.10;3.15;;;11.20;99.90;;;;;;5046319;28;20040;-72
2023/03/31 09:49:13;;;;;;;6.35;3.75;;;11.30;99.90;;;;;;5045188;28;20059;-72
2023/03/31 09:51:42;;;;;;;7.30;3.80;;;11.30;99.90;;;;;;5046799;28;20124;-72
2023/03/31 09:54:37;;;;;;;5.28;3.88;;;11.30;99.90;;;;;;5047742;28;20042;-72
2023/03/31 09:57:13;;;;;;;6.97;3.60;;;11.30;99.90;;;;;;5050766;28;20501;-72
2023/03/31 09:59:40;;;;;;;7.55;4.30;;;11.40;99.90;;;;;;5055559;28;20049;-72
2023/03/31 10:02:34;;;;;;;7.18;3.63;;;11.50;99.90;;;;;;5048793;28;20507;-72
2023/03/31 10:05:00;;;;;;;8.55;3.97;;;11.60;99.90;;;;;;5044000;28;20090;-71
2023/03/31 10:07:26;;;;;;;5.95;3.60;;;11.70;99.90;;;;;;5042298;28;20052;-72
2023/03/31 10:09:54;;;;;;;7.95;3.72;;;11.70;99.90;;;;;;5043063;28;20053;-72
2023/03/31 10:12:24;;;;;;;9.93;3.90;;;11.70;99.90;;;;;;5053764;28;20044;-73
2023/03/31 10:14:52;;;;;;;6.82;3.47;;;11.80;99.90;;;;;;5060358;28;20147;-72
2023/03/31 10:17:22;;;;;;;6.90;3.63;;;11.80;99.90;;;;;;5044450;28;20499;-72
2023/03/31 10:19:52;;;;;;;8.48;4.30;;;11.80;99.90;;;;;;5055053;28;20049;-72
2023/03/31 10:22:20;;;;;;;3.08;2.63;;;11.80;99.90;;;;;;5041428;28;20056;-72
2023/03/31 10:24:48;;;;;;;5.53;3.00;;;11.80;99.90;;;;;;5060562;28;20048;-72
2023/03/31 10:27:26;;;;;;;3.40;2.67;;;11.90;99.90;;;;;;5058931;28;20123;-72
2023/03/31 10:29:55;;;;;;;2.97;2.00;;;12.10;99.90;;;;;;5074205;28;20044;-73
2023/03/31 10:32:27;;;;;;;4.50;2.30;;;12.10;99.90;;;;;;5041419;28;20049;-72
2023/03/31 10:34:55;;;;;;;3.57;2.53;;;12.20;99.90;;;;;;5042143;28;20057;-72
2023/03/31 10:37:23;;;;;;;5.30;2.88;;;12.20;99.90;;;;;;5052688;28;20295;-73
2023/03/31 10:40:18;;;;;;;2.97;2.17;;;12.20;99.90;;;;;;5066563;28;20036;-72
2023/03/31 10:42:46;;;;;;;5.43;2.20;;;12.10;99.90;;;;;;5045893;28;20070;-72
2023/03/31 10:45:30;;;;;;;3.83;1.85;;;12.00;99.90;;;;;;5050703;28;20044;-72
2023/03/31 10:47:58;;;;;;;4.55;2.20;;;11.90;99.90;;;;;;5063904;28;20442;-71
2023/03/31 10:50:35;;;;;;;2.35;2.03;;;12.00;99.90;;;;;;5026254;28;20048;-72
2023/03/31 10:53:10;;;;;;;3.40;2.17;;;12.10;99.90;;;;;;5052337;28;20055;-72
2023/03/31 10:55:48;;;;;;;4.03;2.20;;;12.10;99.90;;;;;;5052800;28;20063;-72
2023/03/31 10:58:43;;;;;;;4.18;2.45;;;12.10;99.90;;;;;;5047068;28;20056;-71
2023/03/31 11:01:36;;;;;;;4.50;2.40;;;12.20;99.90;;;;;;5048913;28;20045;-71
2023/03/31 11:04:17;;;;;;;5.63;2.40;;;12.40;99.90;;;;;;5041106;28;20049;-71
2023/03/31 11:07:03;;;;;;;3.55;2.10;;;12.60;99.90;;;;;;5040726;28;20151;-72
2023/03/31 11:09:50;;;;;;;5.35;2.80;;;12.90;99.90;;;;;;5052881;28;20060;-72
2023/03/31 11:12:40;;;;;;;6.15;2.30;;;13.20;99.90;;;;;;5055632;28;20090;-71
2023/03/31 11:15:24;;;;;;;5.20;2.17;;;13.50;99.90;;;;;;5042104;28;20615;-71
2023/03/31 11:18:14;;;;;;;2.88;2.50;;;13.70;99.90;;;;;;5040498;28;20045;-72
2023/03/31 11:20:50;;;;;;;3.22;2.50;;;13.70;99.90;;;;;;5050249;28;20048;-72
2023/03/31 11:23:39;;;;;;;5.22;2.33;;;13.90;99.90;;;;;;5052495;28;20053;-71
2023/03/31 11:26:14;;;;;;;6.75;2.40;;;13.90;99.90;;;;;;5057858;28;20135;-72
2023/03/31 11:28:56;;;;;;;3.45;2.22;;;14.00;99.90;;;;;;5062785;28;20048;-72
2023/03/31 11:31:30;;;;;;;4.68;2.65;;;14.20;99.90;;;;;;5067817;28;20916;-71
2023/03/31 11:34:21;;;;;;;5.47;2.50;;;14.40;99.90;;;;;;5040455;28;20099;-72
2023/03/31 11:36:59;;;;;;;5.95;3.08;;;14.60;99.90;;;;;;5075734;28;20041;-72
2023/03/31 11:40:06;;;;;;;6.22;2.03;;;14.90;99.90;;;;;;5060725;28;20730;-71
2023/03/31 11:42:52;;;;;;;5.10;2.20;;;15.10;99.90;;;;;;5032835;28;20061;-72
2023/03/31 11:45:22;;;;;;;6.65;2.05;;;14.90;99.90;;;;;;5034994;28;20068;-72
2023/03/31 11:47:53;;;;;;;4.65;2.80;;;14.70;99.90;;;;;;5053437;28;20059;-72
2023/03/31 11:50:26;;;;;;;3.50;1.35;;;14.30;99.90;;;;;;5046227;28;20516;-72
2023/03/31 11:53:15;;;;;;;4.22;1.40;;;14.00;99.90;;;;;;5049935;28;20191;-72
2023/03/31 11:55:42;;;;;;;4.85;2.30;;;13.70;99.90;;;;;;5039609;28;20060;-72
2023/03/31 11:58:19;;;;;;;1.73;1.58;;;13.90;99.90;;;;;;5057205;28;20114;-72
2023/03/31 12:00:58;;;;;;;3.92;2.00;;;14.10;99.90;;;;;;5050796;28;20084;-72
2023/03/31 12:03:42;;;;;;;5.03;1.60;;;14.30;99.90;;;;;;5067892;28;20037;-71
2023/03/31 12:06:17;;;;;;;2.38;1.73;;;14.50;99.90;;;;;;5040188;28;20437;-71
2023/03/31 12:08:58;;;;;;;2.97;2.15;;;14.50;99.90;;;;;;5060162;28;20064;-72
2023/03/31 12:11:34;;;;;;;2.30;1.60;;;14.50;99.90;;;;;;5047629;28;20056;-72
2023/03/31 12:14:20;;;;;;;3.83;1.88;;;14.40;99.90;;;;;;5042551;28;20044;-72
2023/03/31 12:16:51;;;;;;;6.55;1.98;;;14.30;99.90;;;;;;5051676;28;20048;-71
2023/03/31 12:19:42;;;;;;;2.03;1.50;;;14.20;99.90;;;;;;5040683;28;20363;-72
2023/03/31 12:22:21;;;;;;;3.45;1.83;;;14.20;99.90;;;;;;5067977;28;20140;-72
2023/03/31 12:24:47;;;;;;;5.05;2.05;;;14.10;99.90;;;;;;5042395;28;20040;-71
2023/03/31 12:27:13;;;;;;;2.58;2.10;;;14.20;99.90;;;;;;5055072;28;20148;-72
2023/03/31 12:29:42;;;;;;;2.88;2.03;;;14.20;99.90;;;;;;5049476;28;20169;-72
2023/03/31 12:32:36;;;;;;;5.95;3.05;;;14.20;99.90;;;;;;5066123;28;20079;-72
2023/03/31 12:35:13;;;;;;;5.22;2.15;;;14.10;99.90;;;;;;5046371;28;20044;-72
2023/03/31 12:38:04;;;;;;;7.55;2.78;;;14.10;99.90;;;;;;5050657;28;20049;-72
2023/03/31 12:40:48;;;;;;;4.53;2.88;;;14.10;99.90;;;;;;5055558;28;20124;-72
2023/03/31 12:43:35;;;;;;;2.95;1.77;;;14.10;99.90;;;;;;5046194;28;20044;-72
2023/03/31 12:46:04;;;;;;;6.22;2.80;;;13.90;99.90;;;;;;5064664;28;20055;-72
2023/03/31 12:48:57;;;;;;;3.10;2.75;;;14.00;99.90;;;;;;5042785;28;20057;-72
2023/03/31 12:52:01;;;;;;;7.13;2.90;;;13.90;99.90;;;;;;5050626;28;20056;-72
2023/03/31 12:54:52;;;;;;;4.70;2.53;;;13.90;99.90;;;;;;5048984;28;20182;-71
2023/03/31 12:57:25;;;;;;;9.50;2.78;;;14.10;99.90;;;;;;5064695;28;20135;-73
2023/03/31 13:00:19;;;;;;;4.15;2.88;;;14.30;99.90;;;;;;5048698;28;20056;-72
2023/03/31 13:02:46;;;;;;;9.75;3.13;;;14.50;99.90;;;;;;5043298;28;20060;-71
2023/03/31 13:05:37;;;;;;;5.18;2.72;;;14.70;99.90;;;;;;5058998;28;20051;-71
2023/03/31 13:08:09;;;;;;;7.97;2.70;;;14.70;99.90;;;;;;5066216;28;20156;-71
2023/03/31 13:10:58;;;;;;;7.15;3.35;;;14.60;99.90;;;;;;5061429;28;20055;-71